This is the latest recevied weather packets stored in our database for station/object N7WSS. If no packets are shown the sender has not sent any weather packets the latest 10 day(s).
| Time | Temp. | Humidity | Pressure | Rain* | Wind** | Luminosity | Snow |
|---|---|---|---|---|---|---|---|
| 1777752986 | 28.89° C | 19% | 1012.8 hPa | 0 mm | - | - | - |
| 1777752682 | 29.44° C | 20% | 1012.7 hPa | 0 mm | - | - | - |
| 1777752378 | 28.89° C | 22% | 1012.7 hPa | 0 mm | - | - | - |
| 1777752076 | 29.44° C | 22% | 1013 hPa | 0 mm | - | - | - |
| 1777751774 | 28.89° C | 23% | 1013.1 hPa | 0 mm | - | - | - |
| 1777750560 | 27.78° C | 26% | 1012.9 hPa | 0 mm | - | - | - |
| 1777750256 | 28.89° C | 25% | 1013.3 hPa | 0 mm | - | - | - |
| 1777749952 | 28.33° C | 25% | 1013 hPa | 0 mm | - | - | - |
| 1777749649 | 28.33° C | 26% | 1013.1 hPa | 0 mm | - | - | - |
| 1777749346 | 27.78° C | 26% | 1013.3 hPa | 0 mm | - | - | - |
| 1777749044 | 27.78° C | 29% | 1013.2 hPa | 0 mm | - | - | - |
| 1777748742 | 27.78° C | 29% | 1013.6 hPa | 0 mm | - | - | - |
| 1777748438 | 27.78° C | 30% | 1013.7 hPa | 0 mm | - | - | - |
| 1777748133 | 27.78° C | 28% | 1013.8 hPa | 0 mm | - | - | - |
| 1777747830 | 27.78° C | 30% | 1013.8 hPa | 0 mm | - | - | - |
| 1777747526 | 27.78° C | 29% | 1013.8 hPa | 0 mm | - | - | - |
| 1777746615 | 27.22° C | 31% | 1013.9 hPa | 0 mm | - | - | - |
| 1777746309 | 27.22° C | 31% | 1013.9 hPa | 0 mm | - | - | - |
| 1777746006 | 27.22° C | 29% | 1014.2 hPa | 0 mm | - | - | - |
| 1777745099 | 27.22° C | 31% | 1013.9 hPa | 0 mm | - | - | - |
| 1777744795 | 26.67° C | 31% | 1014.2 hPa | 0 mm | - | - | - |
| 1777743884 | 26.11° C | 32% | 1014.1 hPa | 0 mm | - | - | - |
| 1777743277 | 26.11° C | 33% | 1014.3 hPa | 0 mm | - | - | - |
| 1777742975 | 26.11° C | 33% | 1014.2 hPa | 0 mm | - | - | - |
| 1777742672 | 25.56° C | 33% | 1014.4 hPa | 0 mm | - | - | - |
* Rain latest hour (hover to see other rain measurements)
** Current wind speed in m/s (hover to see current wind gust speed)